Time;durP1;ratioP1;P1;durP2;ratioP2;P2;SDS_P1;SDS_P2;PMS_P1;PMS_P2;Temp;Humidity;BMP_temperature;BMP_pressure;BME280_temperature;BME280_humidity;BME280_pressure;Samples;Min_cycle;Max_cycle;Signal;HPM_P1;HPM_P2
2023/10/30 00:00:45;;;;;;;4.50;0.87;;;11.20;99.90;;;;;;5014396;28;20195;-81
2023/10/30 00:03:11;;;;;;;1.20;0.83;;;11.30;99.90;;;;;;5013349;28;20213;-81
2023/10/30 00:05:37;;;;;;;1.77;1.00;;;11.20;99.90;;;;;;5014315;28;20199;-81
2023/10/30 00:08:03;;;;;;;2.73;1.00;;;11.20;99.90;;;;;;5013503;28;20656;-81
2023/10/30 00:10:28;;;;;;;2.00;0.70;;;11.20;99.90;;;;;;5013186;28;20753;-81
2023/10/30 00:12:54;;;;;;;1.90;1.00;;;11.20;99.90;;;;;;5013545;28;20277;-81
2023/10/30 00:15:20;;;;;;;2.03;1.00;;;11.20;99.90;;;;;;5014310;28;20221;-81
2023/10/30 00:17:46;;;;;;;3.37;0.90;;;11.20;99.90;;;;;;5014819;28;20195;-81
2023/10/30 00:20:11;;;;;;;2.53;0.80;;;11.30;99.90;;;;;;5013749;28;20284;-81
2023/10/30 00:22:37;;;;;;;3.93;1.10;;;11.30;99.90;;;;;;5029676;28;20186;-81
2023/10/30 00:25:03;;;;;;;3.97;1.30;;;11.30;99.90;;;;;;5014164;28;20180;-81
2023/10/30 00:27:29;;;;;;;5.10;1.43;;;11.30;99.90;;;;;;5014192;28;20171;-81
2023/10/30 00:29:54;;;;;;;3.67;1.20;;;11.30;99.90;;;;;;5012483;28;20195;-81
2023/10/30 00:32:20;;;;;;;2.60;1.10;;;11.30;99.90;;;;;;5014099;28;20183;-81
2023/10/30 00:34:45;;;;;;;1.80;1.00;;;11.30;99.90;;;;;;5012445;28;20182;-81
2023/10/30 00:37:12;;;;;;;4.23;1.30;;;11.30;99.90;;;;;;5013024;28;20261;-81
2023/10/30 00:39:38;;;;;;;2.53;0.97;;;11.30;99.90;;;;;;5013606;28;20281;-81
2023/10/30 00:42:04;;;;;;;3.80;1.17;;;11.30;99.90;;;;;;5012781;28;20186;-81
2023/10/30 00:44:29;;;;;;;2.10;1.20;;;11.30;99.90;;;;;;5012721;28;20179;-81
2023/10/30 00:46:55;;;;;;;2.30;0.90;;;11.30;99.90;;;;;;5013664;28;20175;-81
2023/10/30 00:49:21;;;;;;;3.03;1.07;;;11.30;99.90;;;;;;5013231;28;20577;-81
2023/10/30 00:51:46;;;;;;;1.97;1.10;;;11.30;99.90;;;;;;5013666;28;20167;-81
2023/10/30 00:54:12;;;;;;;3.33;1.10;;;11.30;99.90;;;;;;5013711;28;20202;-80
2023/10/30 00:56:37;;;;;;;2.80;0.87;;;11.30;99.90;;;;;;5028715;28;20171;-81
2023/10/30 00:59:03;;;;;;;2.67;0.97;;;11.30;99.90;;;;;;5012094;28;20194;-81
2023/10/30 01:01:28;;;;;;;2.10;1.00;;;11.30;99.90;;;;;;5012267;28;20207;-82
2023/10/30 01:03:54;;;;;;;2.60;0.80;;;11.30;99.90;;;;;;5028504;28;20621;-81
2023/10/30 01:06:20;;;;;;;1.90;1.10;;;11.30;99.90;;;;;;5028743;28;20644;-81
2023/10/30 01:08:45;;;;;;;3.67;1.23;;;11.30;99.90;;;;;;5012421;28;20186;-81
2023/10/30 01:11:11;;;;;;;1.93;1.00;;;11.30;99.90;;;;;;5013371;28;20171;-82
2023/10/30 01:13:36;;;;;;;3.87;1.10;;;11.20;99.90;;;;;;5012197;28;20190;-81
2023/10/30 01:16:03;;;;;;;4.00;1.07;;;11.30;99.90;;;;;;5013334;28;20175;-81
2023/10/30 01:18:28;;;;;;;1.30;0.83;;;11.20;99.90;;;;;;5028192;28;20313;-81
2023/10/30 01:20:54;;;;;;;2.30;0.90;;;11.20;99.90;;;;;;5013334;28;20269;-81
2023/10/30 01:23:20;;;;;;;2.93;0.80;;;11.20;99.90;;;;;;5013196;28;20171;-81
2023/10/30 01:25:47;;;;;;;5.13;1.30;;;11.30;99.90;;;;;;5012984;28;20178;-81
2023/10/30 01:28:12;;;;;;;3.70;0.90;;;11.30;99.90;;;;;;5013059;28;20169;-81
2023/10/30 01:30:38;;;;;;;2.73;0.97;;;11.30;99.90;;;;;;5012678;28;20191;-81
2023/10/30 01:33:03;;;;;;;3.00;1.10;;;11.30;99.90;;;;;;5027930;28;20269;-81
2023/10/30 01:35:29;;;;;;;3.30;0.83;;;11.30;99.90;;;;;;5013076;28;20207;-81
2023/10/30 01:37:54;;;;;;;2.90;1.10;;;11.30;99.90;;;;;;5028251;28;20180;-81
2023/10/30 01:40:20;;;;;;;3.10;1.40;;;11.30;99.90;;;;;;5011251;28;20222;-81
2023/10/30 01:42:45;;;;;;;2.93;1.40;;;11.30;99.90;;;;;;5012830;28;20177;-81
2023/10/30 01:45:11;;;;;;;5.87;1.10;;;11.30;99.90;;;;;;5013109;28;20601;-81
2023/10/30 01:47:37;;;;;;;2.90;1.07;;;11.30;99.90;;;;;;5011486;28;20167;-81
2023/10/30 01:50:05;;;;;;;2.93;0.97;;;11.30;99.90;;;;;;5012373;28;20217;-81
2023/10/30 01:52:32;;;;;;;1.90;0.93;;;11.30;99.90;;;;;;5028281;28;20235;-81
2023/10/30 01:54:57;;;;;;;2.37;1.20;;;11.30;99.90;;;;;;5028088;28;20183;-81
2023/10/30 01:57:26;;;;;;;3.80;0.90;;;11.30;99.90;;;;;;5011520;28;20543;-81
2023/10/30 01:59:52;;;;;;;3.90;1.30;;;11.30;99.90;;;;;;5011557;28;20214;-81
2023/10/30 02:02:22;;;;;;;3.30;1.10;;;11.30;99.90;;;;;;5012481;28;20217;-81
2023/10/30 02:04:47;;;;;;;3.37;0.77;;;11.30;99.90;;;;;;5012271;28;20178;-81
2023/10/30 02:07:14;;;;;;;2.37;1.07;;;11.30;99.90;;;;;;5012663;28;20175;-81
2023/10/30 02:09:40;;;;;;;2.50;0.80;;;11.30;99.90;;;;;;5012247;28;20190;-81
2023/10/30 02:12:06;;;;;;;2.47;1.20;;;11.30;99.90;;;;;;5012690;28;20246;-81
2023/10/30 02:14:32;;;;;;;2.70;1.00;;;11.30;99.90;;;;;;5011160;28;20210;-81
2023/10/30 02:16:58;;;;;;;4.57;1.10;;;11.30;99.90;;;;;;5012937;28;20174;-81
2023/10/30 02:19:26;;;;;;;4.63;1.10;;;11.30;99.90;;;;;;5010928;28;20191;-81
2023/10/30 02:21:52;;;;;;;4.17;1.30;;;11.30;99.90;;;;;;5012400;28;20641;-81
2023/10/30 02:24:19;;;;;;;4.33;1.20;;;11.30;99.90;;;;;;5012461;28;20181;-81
2023/10/30 02:26:45;;;;;;;4.43;0.90;;;11.30;99.90;;;;;;5012553;28;20254;-81
2023/10/30 02:29:11;;;;;;;2.17;0.90;;;11.30;99.90;;;;;;5012219;28;20278;-83
2023/10/30 02:31:36;;;;;;;1.23;0.90;;;11.30;99.90;;;;;;5027606;28;20202;-81
2023/10/30 02:34:02;;;;;;;2.40;1.00;;;11.30;99.90;;;;;;5011283;28;20182;-81
2023/10/30 02:36:28;;;;;;;2.53;1.10;;;11.30;99.90;;;;;;5012499;28;20175;-81
2023/10/30 02:38:54;;;;;;;4.77;1.37;;;11.20;99.90;;;;;;5010783;28;20203;-82
2023/10/30 02:41:31;;;;;;;2.97;1.00;;;11.20;99.90;;;;;;5012164;28;20197;-81
2023/10/30 02:44:00;;;;;;;2.20;1.20;;;11.30;99.90;;;;;;5011014;28;20174;-81
2023/10/30 02:46:26;;;;;;;3.40;1.83;;;11.20;99.90;;;;;;5012338;28;20167;-82
2023/10/30 02:48:52;;;;;;;2.70;1.03;;;11.20;99.90;;;;;;5012038;28;20277;-82
2023/10/30 02:51:18;;;;;;;3.00;1.20;;;11.20;99.90;;;;;;5011115;28;20657;-82
2023/10/30 02:53:44;;;;;;;2.07;0.90;;;11.20;99.90;;;;;;5011046;28;20186;-81
2023/10/30 02:56:10;;;;;;;3.20;1.23;;;11.20;99.90;;;;;;5012055;28;20687;-81
2023/10/30 02:58:35;;;;;;;2.63;1.00;;;11.30;99.90;;;;;;5010710;28;20241;-79
2023/10/30 03:01:02;;;;;;;3.03;1.17;;;11.20;99.90;;;;;;5010898;28;20199;-82
2023/10/30 03:03:28;;;;;;;2.80;1.30;;;11.30;99.90;;;;;;5012058;28;20174;-81
2023/10/30 03:05:54;;;;;;;3.17;0.90;;;11.30;99.90;;;;;;5027509;28;20171;-81
2023/10/30 03:08:20;;;;;;;4.20;1.10;;;11.30;99.90;;;;;;5011949;28;20185;-81
2023/10/30 03:10:47;;;;;;;3.57;1.00;;;11.30;99.90;;;;;;5011837;28;20652;-81
2023/10/30 03:13:13;;;;;;;2.73;1.27;;;11.30;99.90;;;;;;5012178;28;20189;-81
2023/10/30 03:15:38;;;;;;;3.10;1.00;;;11.30;99.90;;;;;;5013168;28;20183;-82
2023/10/30 03:18:04;;;;;;;5.40;1.27;;;11.20;99.90;;;;;;5014133;28;20198;-81
2023/10/30 03:20:29;;;;;;;3.33;1.10;;;11.20;99.90;;;;;;5015306;28;20195;-81
2023/10/30 03:22:55;;;;;;;3.87;1.00;;;11.30;99.90;;;;;;5015461;28;20288;-81
2023/10/30 03:25:20;;;;;;;3.67;1.37;;;11.30;99.90;;;;;;5014015;28;20190;-82
2023/10/30 03:27:46;;;;;;;4.23;1.10;;;11.30;99.90;;;;;;5014884;28;20178;-81
2023/10/30 03:30:12;;;;;;;4.00;1.00;;;11.20;99.90;;;;;;5013739;28;20195;-81
2023/10/30 03:32:37;;;;;;;2.47;1.10;;;11.30;99.90;;;;;;5015104;28;20190;-81
2023/10/30 03:35:03;;;;;;;2.43;1.00;;;11.30;99.90;;;;;;5014024;28;20183;-83
2023/10/30 03:37:28;;;;;;;3.60;1.07;;;11.20;99.90;;;;;;5014034;28;20183;-81
2023/10/30 03:39:54;;;;;;;4.70;1.30;;;11.30;99.90;;;;;;5014618;28;20207;-81
2023/10/30 03:42:20;;;;;;;4.30;1.30;;;11.20;99.90;;;;;;5014979;28;20205;-81
2023/10/30 03:44:46;;;;;;;2.97;0.93;;;11.20;99.90;;;;;;5015337;28;20178;-81
2023/10/30 03:47:12;;;;;;;3.30;1.03;;;11.10;99.90;;;;;;5013987;28;20628;-81
2023/10/30 03:49:37;;;;;;;2.20;0.90;;;11.10;99.90;;;;;;5014744;28;20811;-82
2023/10/30 03:52:03;;;;;;;2.43;0.77;;;11.10;99.90;;;;;;5014883;28;20258;-81
2023/10/30 03:54:28;;;;;;;3.73;1.77;;;11.10;99.90;;;;;;5014703;28;20287;-81
2023/10/30 03:56:54;;;;;;;2.33;0.80;;;11.10;99.90;;;;;;5014557;28;20615;-81
2023/10/30 03:59:20;;;;;;;3.30;1.30;;;11.10;99.90;;;;;;5014567;28;20672;-81
2023/10/30 04:01:45;;;;;;;2.77;1.20;;;11.10;99.90;;;;;;5013465;28;20207;-81
2023/10/30 04:04:11;;;;;;;1.40;0.80;;;11.10;99.90;;;;;;5013563;28;20174;-81
2023/10/30 04:06:37;;;;;;;3.87;1.00;;;11.10;99.90;;;;;;5014610;28;20221;-81
2023/10/30 04:09:06;;;;;;;2.83;0.90;;;11.10;99.90;;;;;;5014061;28;20230;-81
2023/10/30 04:11:32;;;;;;;5.77;1.00;;;11.10;99.90;;;;;;5014450;28;20751;-83
2023/10/30 04:13:58;;;;;;;2.70;0.90;;;11.10;99.90;;;;;;5013518;28;20217;-82
2023/10/30 04:16:24;;;;;;;3.07;1.10;;;11.10;99.90;;;;;;5013001;28;20174;-81
2023/10/30 04:18:50;;;;;;;3.60;1.00;;;11.00;99.90;;;;;;5014033;28;20202;-81
2023/10/30 04:21:15;;;;;;;2.43;1.00;;;11.10;99.90;;;;;;5013958;28;20256;-81
2023/10/30 04:23:42;;;;;;;3.50;1.20;;;11.00;99.90;;;;;;5029531;28;20210;-82
2023/10/30 04:26:08;;;;;;;4.87;1.33;;;11.00;99.90;;;;;;5012485;28;20175;-81
2023/10/30 04:28:34;;;;;;;3.97;1.13;;;10.90;99.90;;;;;;5012788;28;20183;-80
2023/10/30 04:31:00;;;;;;;4.10;0.93;;;10.90;99.90;;;;;;5012709;28;20175;-81
2023/10/30 04:33:25;;;;;;;2.67;0.90;;;10.90;99.90;;;;;;5012673;28;20728;-81
2023/10/30 04:35:51;;;;;;;2.83;1.00;;;10.80;99.90;;;;;;5014100;28;20171;-81
2023/10/30 04:38:17;;;;;;;2.53;1.10;;;10.80;99.90;;;;;;5029197;28;20612;-81
2023/10/30 04:40:42;;;;;;;1.40;0.73;;;10.80;99.90;;;;;;5012402;28;20203;-81
2023/10/30 04:43:08;;;;;;;2.77;0.90;;;10.80;99.90;;;;;;5014034;28;20174;-81
2023/10/30 04:45:33;;;;;;;3.57;0.80;;;10.80;99.90;;;;;;5029169;28;20194;-81
2023/10/30 04:47:59;;;;;;;4.07;0.87;;;10.80;99.90;;;;;;5012628;28;20180;-81
2023/10/30 04:50:24;;;;;;;3.57;0.80;;;10.80;99.90;;;;;;5012722;28;20214;-81
2023/10/30 04:52:50;;;;;;;1.20;0.60;;;10.80;99.90;;;;;;5028819;28;20173;-81
2023/10/30 04:55:16;;;;;;;1.57;0.87;;;10.80;99.90;;;;;;5013480;28;20230;-81
2023/10/30 04:57:41;;;;;;;2.70;1.00;;;10.90;99.90;;;;;;5013722;28;20552;-81
2023/10/30 05:00:07;;;;;;;3.73;0.90;;;10.90;99.90;;;;;;5012166;28;20252;-81
2023/10/30 05:02:33;;;;;;;2.07;0.87;;;10.90;99.90;;;;;;5012457;28;20225;-81
2023/10/30 05:04:58;;;;;;;2.13;0.87;;;10.90;99.90;;;;;;5013519;28;20676;-81
2023/10/30 05:07:24;;;;;;;2.70;0.80;;;11.00;99.90;;;;;;5013357;28;20175;-81
2023/10/30 05:09:50;;;;;;;1.87;0.80;;;11.00;99.90;;;;;;5011925;28;20206;-81
2023/10/30 05:12:15;;;;;;;2.70;0.70;;;11.00;99.90;;;;;;5013302;28;20553;-81
2023/10/30 05:14:41;;;;;;;1.63;0.77;;;11.00;99.90;;;;;;5012259;28;20175;-80
2023/10/30 05:17:07;;;;;;;3.27;0.90;;;11.00;99.90;;;;;;5012958;28;20175;-82
2023/10/30 05:19:32;;;;;;;2.57;0.80;;;10.90;99.90;;;;;;5011447;28;20569;-82
2023/10/30 05:21:58;;;;;;;1.30;0.77;;;10.90;99.90;;;;;;5011544;28;20167;-83
2023/10/30 05:24:23;;;;;;;1.67;0.70;;;10.90;99.90;;;;;;5012766;28;20169;-83
2023/10/30 05:26:52;;;;;;;3.97;0.90;;;10.90;99.90;;;;;;5012823;28;20661;-82
2023/10/30 05:29:17;;;;;;;4.50;1.10;;;10.90;99.90;;;;;;5011112;28;20194;-81
2023/10/30 05:31:43;;;;;;;1.57;0.70;;;11.00;99.90;;;;;;5028002;28;20186;-82
2023/10/30 05:34:09;;;;;;;1.73;0.80;;;11.00;99.90;;;;;;5012581;28;20178;-82
2023/10/30 05:36:34;;;;;;;3.17;0.97;;;11.00;99.90;;;;;;5012393;28;20182;-84
2023/10/30 05:39:00;;;;;;;1.00;0.60;;;10.90;99.90;;;;;;5011566;28;20257;-82
2023/10/30 05:41:26;;;;;;;3.03;1.00;;;10.90;99.90;;;;;;5012406;28;20603;-82
2023/10/30 05:43:52;;;;;;;1.87;0.80;;;10.90;99.90;;;;;;5011363;28;20175;-83
2023/10/30 05:46:17;;;;;;;1.70;0.80;;;11.00;99.90;;;;;;5012433;28;20645;-82
2023/10/30 05:48:44;;;;;;;2.20;0.80;;;11.00;99.90;;;;;;5012205;28;20217;-82
2023/10/30 05:51:10;;;;;;;1.57;0.80;;;10.90;99.90;;;;;;5011242;28;20225;-83
2023/10/30 05:53:36;;;;;;;1.63;0.77;;;11.00;99.90;;;;;;5012626;28;20179;-82
2023/10/30 05:56:01;;;;;;;2.90;0.90;;;11.00;99.90;;;;;;5012638;28;20183;-81
2023/10/30 05:58:27;;;;;;;1.70;0.63;;;11.00;99.90;;;;;;5027847;28;20179;-81
2023/10/30 06:00:53;;;;;;;1.27;0.63;;;11.00;99.90;;;;;;5011089;28;20201;-81
2023/10/30 06:03:18;;;;;;;1.77;0.60;;;11.00;99.90;;;;;;5011300;28;20178;-81
2023/10/30 06:05:44;;;;;;;4.53;1.00;;;11.10;99.90;;;;;;5028200;28;20187;-81
2023/10/30 06:08:10;;;;;;;1.00;0.50;;;11.00;99.90;;;;;;5012978;28;20208;-79
2023/10/30 06:10:37;;;;;;;2.17;0.67;;;11.10;99.90;;;;;;5028668;28;20683;-79
2023/10/30 06:13:03;;;;;;;1.67;0.67;;;11.00;99.90;;;;;;5014151;28;20183;-80
2023/10/30 06:15:28;;;;;;;2.10;0.70;;;11.00;99.90;;;;;;5013640;28;20233;-82
2023/10/30 06:17:54;;;;;;;1.10;0.80;;;11.10;99.90;;;;;;5027443;28;20253;-82
2023/10/30 06:20:19;;;;;;;1.57;0.87;;;11.10;99.90;;;;;;5011635;28;20297;-83
2023/10/30 06:22:45;;;;;;;1.40;0.90;;;11.10;99.90;;;;;;5012210;28;20265;-83
2023/10/30 06:25:11;;;;;;;2.17;0.83;;;11.10;99.90;;;;;;5010985;28;20714;-82
2023/10/30 06:27:40;;;;;;;2.03;0.80;;;11.00;99.90;;;;;;5012206;28;20171;-82
2023/10/30 06:30:06;;;;;;;1.77;0.60;;;11.00;99.90;;;;;;5011927;28;20202;-82
2023/10/30 06:32:31;;;;;;;2.30;1.10;;;11.00;99.90;;;;;;5027304;28;20612;-81
2023/10/30 06:34:57;;;;;;;0.93;0.70;;;11.00;99.90;;;;;;5011912;28;20270;-83
2023/10/30 06:37:22;;;;;;;0.90;0.60;;;11.00;99.90;;;;;;5010833;28;20179;-82
2023/10/30 06:39:48;;;;;;;2.67;0.73;;;11.00;99.90;;;;;;5027222;28;20195;-84
2023/10/30 06:42:14;;;;;;;0.90;0.70;;;11.10;99.90;;;;;;5011942;28;20195;-79
2023/10/30 06:44:39;;;;;;;2.77;0.60;;;11.00;99.90;;;;;;5012065;28;20167;-82
2023/10/30 06:47:05;;;;;;;3.20;0.80;;;11.00;99.90;;;;;;5012251;28;20263;-82
2023/10/30 06:49:31;;;;;;;2.80;0.90;;;11.00;99.90;;;;;;5012764;28;20207;-83
2023/10/30 06:51:56;;;;;;;2.03;0.90;;;10.90;99.90;;;;;;5031096;28;20185;-82
2023/10/30 06:54:22;;;;;;;2.00;0.90;;;10.90;99.90;;;;;;5015965;28;20186;-81
2023/10/30 06:56:48;;;;;;;1.60;0.80;;;10.90;99.90;;;;;;5015556;28;20668;-83
2023/10/30 06:59:14;;;;;;;2.20;0.93;;;10.90;99.90;;;;;;5015390;28;20672;-83
2023/10/30 07:01:47;;;;;;;3.67;1.10;;;10.90;99.90;;;;;;5015507;28;20202;-83
2023/10/30 07:04:14;;;;;;;1.40;0.70;;;10.90;99.90;;;;;;5030769;28;20171;-81
2023/10/30 07:06:43;;;;;;;1.47;0.73;;;10.90;99.90;;;;;;5015513;28;20283;-84
2023/10/30 07:09:10;;;;;;;2.55;1.02;;;10.80;99.90;;;;;;5014347;28;20422;-85
2023/10/30 07:11:36;;;;;;;2.73;0.73;;;10.90;99.90;;;;;;5015344;28;20175;-84
2023/10/30 07:14:03;;;;;;;0.87;0.70;;;10.90;99.90;;;;;;5030744;28;20178;-83
2023/10/30 07:16:29;;;;;;;0.90;0.70;;;10.90;99.90;;;;;;5013700;28;20175;-85
2023/10/30 07:18:56;;;;;;;1.33;0.80;;;10.90;99.90;;;;;;5013536;28;20330;-85
2023/10/30 07:21:21;;;;;;;2.57;0.90;;;10.80;99.90;;;;;;5015017;28;20323;-86
2023/10/30 07:23:47;;;;;;;2.53;0.60;;;10.80;99.90;;;;;;5015087;28;20331;-85
2023/10/30 07:26:12;;;;;;;1.90;0.77;;;10.80;99.90;;;;;;5014988;28;20167;-85
2023/10/30 07:28:38;;;;;;;4.03;0.70;;;10.80;99.90;;;;;;5014678;28;20272;-84
2023/10/30 07:31:03;;;;;;;0.97;0.60;;;10.80;99.90;;;;;;5013620;28;20179;-85
2023/10/30 07:33:29;;;;;;;2.00;1.03;;;10.80;99.90;;;;;;5029850;28;20179;-83
2023/10/30 07:35:55;;;;;;;0.70;0.70;;;10.80;99.90;;;;;;5015259;28;20186;-85
2023/10/30 07:38:20;;;;;;;1.57;0.60;;;10.80;99.90;;;;;;5014910;28;20206;-86
2023/10/30 07:40:46;;;;;;;1.80;0.77;;;10.80;99.90;;;;;;5013252;28;20681;-86
2023/10/30 07:43:11;;;;;;;1.17;0.67;;;10.80;99.90;;;;;;5014717;28;20175;-85
2023/10/30 07:45:43;;;;;;;1.07;0.73;;;10.70;99.90;;;;;;5014532;28;20163;-85
2023/10/30 07:48:08;;;;;;;2.57;0.73;;;10.70;99.90;;;;;;5014705;28;20258;-85
2023/10/30 07:50:37;;;;;;;1.60;0.70;;;10.80;99.90;;;;;;5012995;28;20297;-85
2023/10/30 07:53:03;;;;;;;1.57;0.80;;;10.70;99.90;;;;;;5013320;28;20175;-86
2023/10/30 07:55:28;;;;;;;3.90;0.90;;;10.70;99.90;;;;;;5029713;28;20186;-86
2023/10/30 07:57:54;;;;;;;1.53;0.90;;;10.80;99.90;;;;;;5014701;28;20183;-85
2023/10/30 08:00:21;;;;;;;3.30;0.77;;;10.80;99.90;;;;;;5012532;28;20216;-85
2023/10/30 08:02:46;;;;;;;1.00;0.70;;;10.80;99.90;;;;;;5012357;28;20175;-86
2023/10/30 08:05:15;;;;;;;1.60;0.80;;;10.80;99.90;;;;;;5013144;28;20185;-85
2023/10/30 08:07:41;;;;;;;2.40;0.60;;;10.90;99.90;;;;;;5013137;28;20198;-84
2023/10/30 08:10:07;;;;;;;2.43;0.77;;;10.90;99.90;;;;;;5029685;28;20233;-85
2023/10/30 08:12:33;;;;;;;2.30;0.90;;;10.90;99.90;;;;;;5014444;28;20199;-86
2023/10/30 08:14:59;;;;;;;1.77;0.70;;;10.90;99.90;;;;;;5013572;28;20179;-85
2023/10/30 08:17:26;;;;;;;1.17;0.50;;;10.90;99.90;;;;;;5014276;28;20270;-86
2023/10/30 08:19:51;;;;;;;1.13;0.60;;;10.80;99.90;;;;;;5013566;28;20202;-86
2023/10/30 08:22:17;;;;;;;2.83;1.47;;;10.80;99.90;;;;;;5013968;28;20333;-86
2023/10/30 08:24:42;;;;;;;1.77;0.63;;;10.80;99.90;;;;;;5013483;28;20313;-84
2023/10/30 08:27:08;;;;;;;1.80;0.70;;;10.80;99.90;;;;;;5015241;28;20175;-85
2023/10/30 08:29:33;;;;;;;2.43;0.90;;;10.80;99.90;;;;;;5012140;28;20224;-86
2023/10/30 08:31:59;;;;;;;2.53;0.80;;;10.90;99.90;;;;;;5013440;28;20338;-87
2023/10/30 08:34:25;;;;;;;1.43;1.00;;;11.00;99.90;;;;;;5013772;28;20268;-87
2023/10/30 08:36:50;;;;;;;1.40;0.80;;;11.00;99.90;;;;;;5012930;28;20207;-87
2023/10/30 08:39:16;;;;;;;1.27;0.60;;;11.00;99.90;;;;;;5012362;28;20205;-85
2023/10/30 08:41:41;;;;;;;1.00;0.70;;;11.00;99.90;;;;;;5012497;28;20265;-85
2023/10/30 08:44:07;;;;;;;0.83;0.70;;;11.00;99.90;;;;;;5012352;28;20176;-83
2023/10/30 08:46:33;;;;;;;1.77;0.90;;;11.00;99.90;;;;;;5028855;28;20207;-84
2023/10/30 08:48:59;;;;;;;0.77;0.60;;;11.00;99.90;;;;;;5013227;28;20611;-85
2023/10/30 08:51:24;;;;;;;2.13;0.90;;;11.00;99.90;;;;;;5012985;28;20178;-84
2023/10/30 08:53:51;;;;;;;1.97;0.90;;;11.00;99.90;;;;;;5013517;28;20218;-85
2023/10/30 08:56:17;;;;;;;1.50;0.80;;;11.00;99.90;;;;;;5012578;28;20233;-83
2023/10/30 08:58:43;;;;;;;0.70;0.60;;;11.00;99.90;;;;;;5011685;28;20199;-83
2023/10/30 09:01:09;;;;;;;1.60;0.70;;;11.00;99.90;;;;;;5030644;28;20210;-84
2023/10/30 09:03:34;;;;;;;1.23;0.70;;;11.00;99.90;;;;;;5032013;28;20314;-85
2023/10/30 09:06:00;;;;;;;1.17;0.67;;;11.00;99.90;;;;;;5031783;28;20171;-85
2023/10/30 09:08:25;;;;;;;1.57;0.77;;;11.20;99.90;;;;;;5014429;28;20186;-85
2023/10/30 09:10:51;;;;;;;1.40;0.90;;;11.40;99.90;;;;;;5014084;28;20226;-85
2023/10/30 09:13:17;;;;;;;0.57;0.57;;;11.50;99.90;;;;;;5013548;28;20185;-86
2023/10/30 09:15:43;;;;;;;0.83;0.70;;;11.60;99.90;;;;;;5013286;28;20180;-85
2023/10/30 09:18:08;;;;;;;1.80;0.67;;;11.60;99.90;;;;;;5013251;28;20272;-85
2023/10/30 09:20:34;;;;;;;1.20;0.70;;;11.60;99.90;;;;;;5013991;28;20285;-85
2023/10/30 09:23:00;;;;;;;0.90;0.60;;;11.60;99.90;;;;;;5012995;28;20261;-85
2023/10/30 09:25:25;;;;;;;0.70;0.70;;;11.60;99.90;;;;;;5012889;28;20282;-85
2023/10/30 09:27:51;;;;;;;0.97;0.60;;;11.60;99.90;;;;;;5029543;28;20175;-85
2023/10/30 09:30:18;;;;;;;0.90;0.80;;;11.60;99.90;;;;;;5013375;28;20201;-83
2023/10/30 09:32:44;;;;;;;1.10;0.77;;;11.70;99.90;;;;;;5014778;28;20707;-85
2023/10/30 09:35:10;;;;;;;1.13;0.70;;;11.60;99.90;;;;;;5014115;28;20179;-83
2023/10/30 09:37:37;;;;;;;0.97;0.90;;;11.60;99.90;;;;;;5015582;28;20206;-83
2023/10/30 09:40:04;;;;;;;1.47;0.90;;;11.60;99.90;;;;;;5012897;28;20195;-85
2023/10/30 09:42:32;;;;;;;1.50;0.80;;;11.60;99.90;;;;;;5011233;28;20177;-85
2023/10/30 09:44:59;;;;;;;3.33;0.73;;;11.60;99.90;;;;;;5012691;28;20179;-85
2023/10/30 09:47:27;;;;;;;1.17;0.93;;;11.60;99.90;;;;;;5012506;28;20205;-85
2023/10/30 09:49:54;;;;;;;0.87;0.80;;;11.60;99.90;;;;;;5010837;28;20585;-86
2023/10/30 09:52:22;;;;;;;1.57;0.80;;;11.60;99.90;;;;;;5012190;28;20205;-85
2023/10/30 09:54:49;;;;;;;1.37;0.70;;;11.60;99.90;;;;;;5011202;28;20178;-85
2023/10/30 09:57:15;;;;;;;2.03;0.70;;;11.60;99.90;;;;;;5011136;28;20186;-84
2023/10/30 09:59:41;;;;;;;1.77;0.70;;;11.70;99.90;;;;;;5012018;28;20198;-85
2023/10/30 10:02:07;;;;;;;0.63;0.60;;;11.60;99.90;;;;;;5012279;28;20213;-82
2023/10/30 10:04:33;;;;;;;1.33;0.77;;;11.60;99.90;;;;;;5011183;28;20194;-83
2023/10/30 10:07:00;;;;;;;1.13;0.93;;;11.60;99.90;;;;;;5012239;28;20233;-84
2023/10/30 10:09:25;;;;;;;0.93;0.77;;;11.60;99.90;;;;;;5012015;28;20195;-84
2023/10/30 10:11:51;;;;;;;0.73;0.63;;;11.60;99.90;;;;;;5027288;28;20204;-83
2023/10/30 10:14:20;;;;;;;1.50;0.80;;;11.60;99.90;;;;;;5011059;28;20181;-83
2023/10/30 10:16:45;;;;;;;0.80;0.80;;;11.60;99.90;;;;;;5010928;28;20644;-83
2023/10/30 10:19:22;;;;;;;1.33;0.97;;;11.70;99.90;;;;;;5011898;28;20210;-85
2023/10/30 10:21:51;;;;;;;0.70;0.70;;;11.60;99.90;;;;;;5012457;28;20212;-81
2023/10/30 10:24:30;;;;;;;0.80;0.80;;;11.60;99.90;;;;;;5012500;28;20175;-81
2023/10/30 10:27:04;;;;;;;1.27;0.90;;;11.60;99.90;;;;;;5016461;28;20178;-82
2023/10/30 10:29:30;;;;;;;3.00;1.53;;;11.60;99.90;;;;;;5016119;28;20199;-81
2023/10/30 10:31:56;;;;;;;0.80;0.80;;;11.70;99.90;;;;;;5016594;28;20191;-82
2023/10/30 10:34:23;;;;;;;2.17;1.00;;;11.70;99.90;;;;;;5015190;28;20250;-80
2023/10/30 10:36:48;;;;;;;26.70;9.60;;;11.80;99.90;;;;;;5015860;28;20182;-85
2023/10/30 10:39:14;;;;;;;1.53;1.00;;;11.80;99.90;;;;;;5014497;28;20201;-85
2023/10/30 10:41:42;;;;;;;4.37;2.07;;;12.00;99.90;;;;;;5016595;28;20242;-87
2023/10/30 10:44:09;;;;;;;97.70;37.97;;;12.00;99.90;;;;;;5016090;28;20179;-87
2023/10/30 10:46:35;;;;;;;1.73;1.13;;;12.20;99.90;;;;;;5016183;28;20377;-82
2023/10/30 10:49:01;;;;;;;0.70;0.63;;;12.00;99.90;;;;;;5015064;28;20206;-82
2023/10/30 10:51:37;;;;;;;2.80;0.90;;;11.90;99.90;;;;;;5014849;28;20179;-82
2023/10/30 10:54:13;;;;;;;2.67;0.90;;;11.90;99.90;;;;;;5016556;28;20201;-80
2023/10/30 10:56:41;;;;;;;32.07;25.30;;;11.90;99.90;;;;;;5014870;28;20189;-81
2023/10/30 10:59:13;;;;;;;5.10;3.30;;;12.30;99.90;;;;;;5014657;28;20290;-81
2023/10/30 11:01:41;;;;;;;43.87;34.00;;;12.20;99.90;;;;;;5014994;28;20202;-81
2023/10/30 11:04:08;;;;;;;251.43;85.33;;;12.90;99.90;;;;;;5031533;28;20183;-81
2023/10/30 11:06:38;;;;;;;1.43;1.33;;;14.20;99.90;;;;;;5016558;28;20179;-82
2023/10/30 11:09:19;;;;;;;25.10;18.60;;;14.10;99.90;;;;;;5014379;28;20202;-83
2023/10/30 11:11:51;;;;;;;637.70;102.43;;;13.50;99.90;;;;;;5014699;28;20210;-81
2023/10/30 11:14:49;;;;;;;103.20;49.40;;;15.00;99.90;;;;;;5016440;28;20183;-80
2023/10/30 11:17:16;;;;;;;22.50;10.33;;;14.10;99.90;;;;;;4990201;28;20207;-82
2023/10/30 11:19:42;;;;;;;1.50;1.03;;;13.30;99.90;;;;;;5015385;28;20194;-81
2023/10/30 11:22:07;;;;;;;1.37;0.97;;;13.00;99.90;;;;;;5014316;28;20213;-86
2023/10/30 11:24:43;;;;;;;16.10;7.37;;;12.90;99.90;;;;;;5013724;28;20175;-85
2023/10/30 11:27:27;;;;;;;1.23;1.00;;;13.10;99.90;;;;;;5015197;28;20266;-83
2023/10/30 11:30:01;;;;;;;2.30;1.43;;;13.20;99.90;;;;;;5015897;28;20286;-80
2023/10/30 11:32:32;;;;;;;13.07;7.90;;;13.20;99.90;;;;;;5016192;28;20193;-82
2023/10/30 11:34:57;;;;;;;24.07;13.50;;;13.50;99.90;;;;;;5016893;28;20167;-80
2023/10/30 11:37:23;;;;;;;8.77;5.43;;;13.30;99.90;;;;;;5015236;28;20181;-81
2023/10/30 11:39:49;;;;;;;9.43;5.97;;;13.40;99.90;;;;;;5014833;28;20282;-80
2023/10/30 11:42:21;;;;;;;0.90;0.80;;;14.00;99.90;;;;;;5016533;28;20255;-81
2023/10/30 11:44:47;;;;;;;13.53;6.43;;;14.20;99.90;;;;;;5015515;28;20649;-83
2023/10/30 11:47:12;;;;;;;70.17;29.00;;;14.30;99.90;;;;;;5014876;28;20174;-83
2023/10/30 11:49:41;;;;;;;32.80;15.60;;;14.20;99.90;;;;;;5013976;28;20211;-84
2023/10/30 11:52:10;;;;;;;246.17;107.33;;;14.10;99.90;;;;;;5014601;28;20178;-84
2023/10/30 11:54:39;;;;;;;16.70;8.63;;;14.60;99.90;;;;;;5014333;28;20273;-83
2023/10/30 11:57:05;;;;;;;13.37;7.10;;;14.20;99.90;;;;;;5016183;28;20175;-80
2023/10/30 11:59:31;;;;;;;4.33;2.17;;;14.10;99.90;;;;;;5013725;28;20253;-85
2023/10/30 12:01:57;;;;;;;1.40;1.07;;;14.00;99.90;;;;;;5013117;28;20211;-82
2023/10/30 12:04:26;;;;;;;1.00;0.90;;;13.80;99.90;;;;;;5013183;28;20175;-82
2023/10/30 12:06:53;;;;;;;3.67;1.93;;;13.60;99.90;;;;;;5013081;28;20550;-82
2023/10/30 12:09:20;;;;;;;5.70;3.23;;;13.60;99.90;;;;;;5014295;28;20203;-82
2023/10/30 12:11:46;;;;;;;2.10;1.47;;;13.60;99.90;;;;;;5016976;28;20183;-83
2023/10/30 12:14:12;;;;;;;1.37;0.93;;;13.60;99.90;;;;;;5014043;28;20178;-82
2023/10/30 12:16:39;;;;;;;1.10;0.70;;;13.70;99.90;;;;;;5013072;28;20553;-82
2023/10/30 12:19:04;;;;;;;10.70;4.93;;;13.60;99.90;;;;;;5012601;28;20226;-82
2023/10/30 12:21:31;;;;;;;1.10;1.00;;;13.90;99.90;;;;;;5029533;28;20245;-82
2023/10/30 12:23:59;;;;;;;7.10;4.07;;;14.10;99.90;;;;;;5013087;28;20179;-82
2023/10/30 12:26:33;;;;;;;4.00;2.47;;;14.40;99.90;;;;;;5012925;28;20185;-82
2023/10/30 12:29:00;;;;;;;7.50;3.77;;;14.80;99.90;;;;;;4997239;28;20195;-82
2023/10/30 12:31:28;;;;;;;0.97;0.87;;;15.20;99.90;;;;;;4994667;28;20184;-82
2023/10/30 12:34:26;;;;;;;0.93;0.77;;;14.90;99.90;;;;;;4994775;28;20183;-82
2023/10/30 12:36:52;;;;;;;1.00;1.00;;;14.80;99.90;;;;;;4950688;28;20187;-82
2023/10/30 12:39:20;;;;;;;0.77;0.77;;;14.70;99.90;;;;;;5009672;28;20195;-83
2023/10/30 12:41:47;;;;;;;0.70;0.70;;;14.50;99.90;;;;;;5009231;28;20219;-82